createdAt,value
2018-10-12T08:17:24.596Z,990.48
2018-10-12T08:18:24.539Z,990.48
2018-10-12T08:20:19.236Z,990.49
2018-10-12T08:21:19.219Z,990.49
2018-10-12T08:23:12.215Z,990.49
2018-10-12T08:24:12.093Z,990.49
2018-10-12T08:26:05.012Z,990.47
2018-10-12T08:27:05.127Z,990.49
2018-10-12T08:29:27.282Z,990.48
2018-10-12T08:29:59.414Z,990.49
2018-10-12T08:31:50.810Z,990.48
2018-10-12T08:32:50.821Z,990.47
2018-10-12T08:34:43.789Z,990.51
2018-10-12T08:35:43.726Z,990.52
2018-10-12T08:37:36.627Z,990.53
2018-10-12T08:38:36.635Z,990.55
2018-10-12T08:40:30.012Z,990.55
2018-10-12T08:41:30.037Z,990.58
2018-10-12T08:43:22.906Z,990.57
2018-10-12T08:44:22.930Z,990.52
2018-10-12T08:46:17.303Z,990.47
2018-10-12T08:47:17.315Z,990.48
2018-10-12T08:49:10.194Z,990.50
2018-10-12T08:50:10.228Z,990.48
2018-10-12T08:52:03.147Z,990.52
2018-10-12T08:53:03.099Z,990.54
2018-10-12T08:54:58.990Z,990.62
2018-10-12T08:55:59.848Z,990.64
2018-10-12T08:57:55.476Z,990.73
2018-10-12T08:58:53.367Z,990.69
2018-10-12T09:00:46.843Z,990.66
2018-10-12T09:01:46.757Z,990.70
2018-10-12T09:03:41.295Z,990.73
2018-10-12T09:04:41.205Z,990.70
2018-10-12T09:06:34.078Z,990.72
2018-10-12T09:07:34.605Z,990.72
2018-10-12T09:09:28.016Z,990.69
2018-10-12T09:10:27.008Z,990.67
2018-10-12T09:12:24.876Z,990.73
2018-10-12T09:13:24.910Z,990.76
2018-10-12T09:14:24.881Z,990.81
2018-10-12T09:15:24.925Z,990.79
2018-10-12T09:16:25.142Z,990.83
2018-10-12T09:17:25.445Z,990.85
2018-10-12T09:18:24.951Z,990.85
2018-10-12T09:19:24.872Z,990.82
2018-10-12T09:20:24.961Z,990.84
2018-10-12T09:21:24.885Z,990.86
2018-10-12T09:22:24.892Z,990.82
2018-10-12T09:23:25.434Z,990.85
2018-10-12T09:24:24.905Z,990.77
2018-10-12T09:25:24.916Z,990.81
2018-10-12T09:26:24.925Z,990.76
2018-10-12T09:27:24.932Z,990.74
2018-10-12T09:28:24.938Z,990.76
2018-10-12T09:29:24.944Z,990.79
2018-10-12T09:30:25.014Z,990.76
2018-10-12T09:31:24.960Z,990.76
2018-10-12T09:32:24.968Z,990.74
2018-10-12T09:33:24.976Z,990.69
2018-10-12T09:34:24.987Z,990.67
2018-10-12T09:35:24.995Z,990.69
2018-10-12T09:36:25.008Z,990.68
2018-10-12T09:37:25.017Z,990.65
2018-10-12T09:38:25.022Z,990.69
2018-10-12T09:39:25.031Z,990.70
2018-10-12T09:40:25.034Z,990.74
